aviador You're here:

KARR Decoded Metar

CHICAGO/AURORA in IL, USA
Report Time2018-01-22 19:52:00
UTC Time2018-01-22 20:03:09
Flight Rules mvfr MVFR
Wind180° at 09 kt
W.Decomp.*RWY 18: 9.0 kt HW 0.2 kt RCW
RWY 15: 7.7 kt HW 4.6 kt RCW
RWY 27: 0.2 kt HW 9 kt LCW
W.Rank180° ranks 4
Current wind is below 180° avg. (9.0)
Visibility9999 m
Phenomena:N/A
Clouds:Few 009 Hf
Broken 016 Hf
Overcast 022 Hf
Expected CloudBase > 400 ft AGL from Temp-Dew spread
Ceiling1,600 ft
Temp12°C (ISA -2)
Dew Point11°C (94% RH)
AAT9.1°C
QNH997 hPa
Density Alt1,240 ft
Elevation705 ft
Report Wrong Elevation
Raw Report
KARR 221952Z 18009KT 9SM FEW009 BKN016 OVC022 12/11 A2943 RMK AO2
SLP969 T01170106=

Extra information for KARR:More info

Metar Taf Metar & Taf Last 4 Metars F.Rules Stats Wind Profile Meteogram Temp Stats Airport Information Weather charts Add Link Nearby VenuesMetar ALERT Operation Metar Decoded Social comments

AIRNAV info for KARR